sensor_id;sensor_type;location;lat;lon;timestamp;P1;durP1;ratioP1;P2;durP2;ratioP2
30505;SDS011;17292;51.600;4.994;2023-04-25T00:02:22;13.88;;;4.72;;
30505;SDS011;17292;51.600;4.994;2023-04-25T00:04:48;14.93;;;5.40;;
30505;SDS011;17292;51.600;4.994;2023-04-25T00:07:14;12.55;;;5.38;;
30505;SDS011;17292;51.600;4.994;2023-04-25T00:09:41;14.32;;;4.65;;
30505;SDS011;17292;51.600;4.994;2023-04-25T00:12:08;14.60;;;5.25;;
30505;SDS011;17292;51.600;4.994;2023-04-25T00:14:34;9.45;;;4.93;;
30505;SDS011;17292;51.600;4.994;2023-04-25T00:17:01;14.15;;;5.85;;
30505;SDS011;17292;51.600;4.994;2023-04-25T00:19:28;11.88;;;4.72;;
30505;SDS011;17292;51.600;4.994;2023-04-25T00:21:54;16.15;;;5.70;;
30505;SDS011;17292;51.600;4.994;2023-04-25T00:24:20;12.07;;;5.05;;
30505;SDS011;17292;51.600;4.994;2023-04-25T00:26:47;14.60;;;5.30;;
30505;SDS011;17292;51.600;4.994;2023-04-25T00:29:13;11.68;;;4.82;;
30505;SDS011;17292;51.600;4.994;2023-04-25T00:31:39;14.52;;;5.43;;
30505;SDS011;17292;51.600;4.994;2023-04-25T00:34:06;10.18;;;4.70;;
30505;SDS011;17292;51.600;4.994;2023-04-25T00:36:33;11.32;;;5.20;;
30505;SDS011;17292;51.600;4.994;2023-04-25T00:38:59;11.52;;;4.60;;
30505;SDS011;17292;51.600;4.994;2023-04-25T00:41:26;14.05;;;5.05;;
30505;SDS011;17292;51.600;4.994;2023-04-25T00:43:52;12.32;;;4.82;;
30505;SDS011;17292;51.600;4.994;2023-04-25T00:46:19;16.85;;;5.80;;
30505;SDS011;17292;51.600;4.994;2023-04-25T00:48:45;14.02;;;5.55;;
30505;SDS011;17292;51.600;4.994;2023-04-25T00:51:16;13.32;;;4.72;;
30505;SDS011;17292;51.600;4.994;2023-04-25T00:53:45;13.80;;;4.57;;
30505;SDS011;17292;51.600;4.994;2023-04-25T00:56:11;13.73;;;5.10;;
30505;SDS011;17292;51.600;4.994;2023-04-25T00:58:38;14.73;;;5.20;;
30505;SDS011;17292;51.600;4.994;2023-04-25T01:01:04;11.65;;;4.88;;
30505;SDS011;17292;51.600;4.994;2023-04-25T01:03:32;11.25;;;5.10;;
30505;SDS011;17292;51.600;4.994;2023-04-25T01:06:00;11.85;;;5.03;;
30505;SDS011;17292;51.600;4.994;2023-04-25T01:08:27;12.73;;;4.93;;
30505;SDS011;17292;51.600;4.994;2023-04-25T01:10:54;13.27;;;5.30;;
30505;SDS011;17292;51.600;4.994;2023-04-25T01:13:20;12.80;;;4.72;;
30505;SDS011;17292;51.600;4.994;2023-04-25T01:15:46;11.40;;;4.50;;
30505;SDS011;17292;51.600;4.994;2023-04-25T01:18:12;8.65;;;4.45;;
30505;SDS011;17292;51.600;4.994;2023-04-25T01:20:38;19.23;;;5.18;;
30505;SDS011;17292;51.600;4.994;2023-04-25T01:23:06;12.52;;;4.82;;
30505;SDS011;17292;51.600;4.994;2023-04-25T01:25:32;10.85;;;4.72;;
30505;SDS011;17292;51.600;4.994;2023-04-25T01:27:59;7.32;;;4.75;;
30505;SDS011;17292;51.600;4.994;2023-04-25T01:30:26;10.60;;;4.63;;
30505;SDS011;17292;51.600;4.994;2023-04-25T01:32:54;12.68;;;5.03;;
30505;SDS011;17292;51.600;4.994;2023-04-25T01:35:20;12.60;;;5.43;;
30505;SDS011;17292;51.600;4.994;2023-04-25T01:37:48;11.65;;;4.32;;
30505;SDS011;17292;51.600;4.994;2023-04-25T01:40:15;14.15;;;5.10;;
30505;SDS011;17292;51.600;4.994;2023-04-25T01:42:42;12.20;;;5.25;;
30505;SDS011;17292;51.600;4.994;2023-04-25T01:45:09;10.73;;;4.95;;
30505;SDS011;17292;51.600;4.994;2023-04-25T01:47:36;12.30;;;5.00;;
30505;SDS011;17292;51.600;4.994;2023-04-25T01:50:03;13.75;;;4.97;;
30505;SDS011;17292;51.600;4.994;2023-04-25T01:52:29;12.55;;;4.88;;
30505;SDS011;17292;51.600;4.994;2023-04-25T01:54:56;10.07;;;4.85;;
30505;SDS011;17292;51.600;4.994;2023-04-25T01:57:23;13.50;;;5.00;;
30505;SDS011;17292;51.600;4.994;2023-04-25T01:59:49;11.35;;;4.95;;
30505;SDS011;17292;51.600;4.994;2023-04-25T02:02:16;7.82;;;4.32;;
30505;SDS011;17292;51.600;4.994;2023-04-25T02:04:42;12.40;;;5.30;;
30505;SDS011;17292;51.600;4.994;2023-04-25T02:07:08;9.63;;;4.40;;
30505;SDS011;17292;51.600;4.994;2023-04-25T02:09:34;13.90;;;5.28;;
30505;SDS011;17292;51.600;4.994;2023-04-25T02:12:00;11.75;;;5.13;;
30505;SDS011;17292;51.600;4.994;2023-04-25T02:14:27;11.80;;;4.78;;
30505;SDS011;17292;51.600;4.994;2023-04-25T02:16:53;13.73;;;5.35;;
30505;SDS011;17292;51.600;4.994;2023-04-25T02:19:19;11.88;;;4.88;;
30505;SDS011;17292;51.600;4.994;2023-04-25T02:21:46;9.90;;;4.75;;
30505;SDS011;17292;51.600;4.994;2023-04-25T02:24:12;13.30;;;5.32;;
30505;SDS011;17292;51.600;4.994;2023-04-25T02:26:38;13.73;;;5.10;;
30505;SDS011;17292;51.600;4.994;2023-04-25T02:29:04;11.50;;;4.57;;
30505;SDS011;17292;51.600;4.994;2023-04-25T02:31:30;10.57;;;4.68;;
30505;SDS011;17292;51.600;4.994;2023-04-25T02:33:56;8.85;;;3.95;;
30505;SDS011;17292;51.600;4.994;2023-04-25T02:36:22;10.65;;;4.47;;
30505;SDS011;17292;51.600;4.994;2023-04-25T02:38:49;15.52;;;4.63;;
30505;SDS011;17292;51.600;4.994;2023-04-25T02:41:15;8.60;;;4.40;;
30505;SDS011;17292;51.600;4.994;2023-04-25T02:43:41;12.15;;;5.03;;
30505;SDS011;17292;51.600;4.994;2023-04-25T02:46:07;10.93;;;4.43;;
30505;SDS011;17292;51.600;4.994;2023-04-25T02:48:34;8.48;;;4.25;;
30505;SDS011;17292;51.600;4.994;2023-04-25T02:51:00;7.72;;;3.97;;
30505;SDS011;17292;51.600;4.994;2023-04-25T02:53:26;8.82;;;3.92;;
30505;SDS011;17292;51.600;4.994;2023-04-25T02:55:52;11.68;;;4.72;;
30505;SDS011;17292;51.600;4.994;2023-04-25T02:58:18;10.75;;;4.55;;
30505;SDS011;17292;51.600;4.994;2023-04-25T03:00:45;12.55;;;4.85;;
30505;SDS011;17292;51.600;4.994;2023-04-25T03:03:11;11.90;;;4.93;;
30505;SDS011;17292;51.600;4.994;2023-04-25T03:05:37;8.35;;;4.28;;
30505;SDS011;17292;51.600;4.994;2023-04-25T03:08:03;13.60;;;5.20;;
30505;SDS011;17292;51.600;4.994;2023-04-25T03:10:29;9.52;;;4.57;;
30505;SDS011;17292;51.600;4.994;2023-04-25T03:12:55;14.13;;;5.00;;
30505;SDS011;17292;51.600;4.994;2023-04-25T03:15:22;10.98;;;4.55;;
30505;SDS011;17292;51.600;4.994;2023-04-25T03:17:48;10.60;;;4.22;;
30505;SDS011;17292;51.600;4.994;2023-04-25T03:20:14;10.98;;;4.60;;
30505;SDS011;17292;51.600;4.994;2023-04-25T03:22:40;12.15;;;4.78;;
30505;SDS011;17292;51.600;4.994;2023-04-25T03:25:07;10.02;;;5.00;;
30505;SDS011;17292;51.600;4.994;2023-04-25T03:27:33;11.07;;;4.75;;
30505;SDS011;17292;51.600;4.994;2023-04-25T03:29:59;11.93;;;5.05;;
30505;SDS011;17292;51.600;4.994;2023-04-25T03:32:25;10.10;;;4.18;;
30505;SDS011;17292;51.600;4.994;2023-04-25T03:34:51;9.35;;;4.53;;
30505;SDS011;17292;51.600;4.994;2023-04-25T03:37:17;11.52;;;4.40;;
30505;SDS011;17292;51.600;4.994;2023-04-25T03:39:44;10.20;;;3.88;;
30505;SDS011;17292;51.600;4.994;2023-04-25T03:42:10;8.73;;;4.18;;
30505;SDS011;17292;51.600;4.994;2023-04-25T03:44:36;11.80;;;4.78;;
30505;SDS011;17292;51.600;4.994;2023-04-25T03:47:02;9.07;;;3.90;;
30505;SDS011;17292;51.600;4.994;2023-04-25T03:49:28;12.43;;;4.97;;
30505;SDS011;17292;51.600;4.994;2023-04-25T03:51:54;7.40;;;4.10;;
30505;SDS011;17292;51.600;4.994;2023-04-25T03:54:20;11.63;;;4.60;;
30505;SDS011;17292;51.600;4.994;2023-04-25T03:56:46;8.00;;;3.95;;
30505;SDS011;17292;51.600;4.994;2023-04-25T03:59:13;12.52;;;4.25;;
30505;SDS011;17292;51.600;4.994;2023-04-25T04:01:39;13.18;;;4.32;;
30505;SDS011;17292;51.600;4.994;2023-04-25T04:04:05;9.93;;;4.05;;
30505;SDS011;17292;51.600;4.994;2023-04-25T04:06:31;11.43;;;4.68;;
30505;SDS011;17292;51.600;4.994;2023-04-25T04:08:58;7.47;;;3.80;;
30505;SDS011;17292;51.600;4.994;2023-04-25T04:11:24;7.57;;;4.30;;
30505;SDS011;17292;51.600;4.994;2023-04-25T04:13:51;10.50;;;4.28;;
30505;SDS011;17292;51.600;4.994;2023-04-25T04:16:17;7.70;;;4.00;;
30505;SDS011;17292;51.600;4.994;2023-04-25T04:18:44;8.85;;;4.28;;
30505;SDS011;17292;51.600;4.994;2023-04-25T04:21:10;7.43;;;3.90;;
30505;SDS011;17292;51.600;4.994;2023-04-25T04:23:38;11.65;;;4.47;;
30505;SDS011;17292;51.600;4.994;2023-04-25T04:26:04;10.18;;;4.10;;
30505;SDS011;17292;51.600;4.994;2023-04-25T04:28:30;9.00;;;4.40;;
30505;SDS011;17292;51.600;4.994;2023-04-25T04:30:56;10.93;;;4.45;;
30505;SDS011;17292;51.600;4.994;2023-04-25T04:33:22;9.95;;;4.07;;
30505;SDS011;17292;51.600;4.994;2023-04-25T04:35:49;9.07;;;4.07;;
30505;SDS011;17292;51.600;4.994;2023-04-25T04:38:17;10.48;;;4.85;;
30505;SDS011;17292;51.600;4.994;2023-04-25T04:40:43;10.18;;;4.18;;
30505;SDS011;17292;51.600;4.994;2023-04-25T04:43:09;9.02;;;4.45;;
30505;SDS011;17292;51.600;4.994;2023-04-25T04:45:36;11.63;;;4.18;;
30505;SDS011;17292;51.600;4.994;2023-04-25T04:48:05;8.48;;;3.85;;
30505;SDS011;17292;51.600;4.994;2023-04-25T04:50:32;10.70;;;4.10;;
30505;SDS011;17292;51.600;4.994;2023-04-25T04:52:59;8.68;;;4.15;;
30505;SDS011;17292;51.600;4.994;2023-04-25T04:55:25;8.80;;;3.85;;
30505;SDS011;17292;51.600;4.994;2023-04-25T04:57:51;10.13;;;4.35;;
30505;SDS011;17292;51.600;4.994;2023-04-25T05:00:17;9.18;;;3.97;;
30505;SDS011;17292;51.600;4.994;2023-04-25T05:02:43;8.85;;;4.65;;
30505;SDS011;17292;51.600;4.994;2023-04-25T05:05:10;9.63;;;3.90;;
30505;SDS011;17292;51.600;4.994;2023-04-25T05:07:36;8.23;;;4.10;;
30505;SDS011;17292;51.600;4.994;2023-04-25T05:10:02;10.90;;;4.40;;
30505;SDS011;17292;51.600;4.994;2023-04-25T05:12:28;7.55;;;4.00;;
30505;SDS011;17292;51.600;4.994;2023-04-25T05:14:55;8.02;;;4.35;;
30505;SDS011;17292;51.600;4.994;2023-04-25T05:17:21;10.18;;;4.47;;
30505;SDS011;17292;51.600;4.994;2023-04-25T05:19:47;15.43;;;4.28;;
30505;SDS011;17292;51.600;4.994;2023-04-25T05:22:13;14.95;;;4.03;;
30505;SDS011;17292;51.600;4.994;2023-04-25T05:24:40;9.45;;;4.25;;
30505;SDS011;17292;51.600;4.994;2023-04-25T05:27:06;6.40;;;3.67;;
30505;SDS011;17292;51.600;4.994;2023-04-25T05:29:32;14.65;;;4.20;;
30505;SDS011;17292;51.600;4.994;2023-04-25T05:31:58;11.77;;;3.95;;
30505;SDS011;17292;51.600;4.994;2023-04-25T05:34:24;10.68;;;3.78;;
30505;SDS011;17292;51.600;4.994;2023-04-25T05:36:50;16.58;;;4.15;;
30505;SDS011;17292;51.600;4.994;2023-04-25T05:39:17;10.77;;;3.95;;
30505;SDS011;17292;51.600;4.994;2023-04-25T05:41:43;16.88;;;4.25;;
30505;SDS011;17292;51.600;4.994;2023-04-25T05:44:09;16.10;;;4.13;;
30505;SDS011;17292;51.600;4.994;2023-04-25T05:46:35;27.58;;;4.85;;
30505;SDS011;17292;51.600;4.994;2023-04-25T05:49:02;17.92;;;5.20;;
30505;SDS011;17292;51.600;4.994;2023-04-25T05:51:28;26.65;;;5.93;;
30505;SDS011;17292;51.600;4.994;2023-04-25T05:53:54;47.95;;;7.03;;
30505;SDS011;17292;51.600;4.994;2023-04-25T05:56:20;31.33;;;5.75;;
30505;SDS011;17292;51.600;4.994;2023-04-25T05:58:46;25.35;;;5.95;;
30505;SDS011;17292;51.600;4.994;2023-04-25T06:01:12;20.90;;;5.28;;
30505;SDS011;17292;51.600;4.994;2023-04-25T06:03:39;25.85;;;4.78;;
30505;SDS011;17292;51.600;4.994;2023-04-25T06:06:07;20.90;;;5.15;;
30505;SDS011;17292;51.600;4.994;2023-04-25T06:08:34;20.38;;;4.90;;
30505;SDS011;17292;51.600;4.994;2023-04-25T06:11:00;20.90;;;5.13;;
30505;SDS011;17292;51.600;4.994;2023-04-25T06:13:26;20.95;;;4.55;;
30505;SDS011;17292;51.600;4.994;2023-04-25T06:15:53;17.45;;;4.43;;
30505;SDS011;17292;51.600;4.994;2023-04-25T06:18:19;22.00;;;4.38;;
30505;SDS011;17292;51.600;4.994;2023-04-25T06:20:45;19.40;;;4.38;;
30505;SDS011;17292;51.600;4.994;2023-04-25T06:23:11;26.20;;;4.93;;
30505;SDS011;17292;51.600;4.994;2023-04-25T06:25:37;22.02;;;4.95;;
30505;SDS011;17292;51.600;4.994;2023-04-25T06:28:03;23.67;;;4.82;;
30505;SDS011;17292;51.600;4.994;2023-04-25T06:30:29;18.67;;;4.53;;
30505;SDS011;17292;51.600;4.994;2023-04-25T06:32:56;24.63;;;5.15;;
30505;SDS011;17292;51.600;4.994;2023-04-25T06:35:22;22.02;;;4.88;;
30505;SDS011;17292;51.600;4.994;2023-04-25T06:37:48;33.45;;;4.80;;
30505;SDS011;17292;51.600;4.994;2023-04-25T06:40:14;25.15;;;5.07;;
30505;SDS011;17292;51.600;4.994;2023-04-25T06:42:42;21.08;;;5.28;;
30505;SDS011;17292;51.600;4.994;2023-04-25T06:45:08;31.33;;;4.88;;
30505;SDS011;17292;51.600;4.994;2023-04-25T06:47:34;26.92;;;5.47;;
30505;SDS011;17292;51.600;4.994;2023-04-25T06:50:01;30.95;;;5.35;;
30505;SDS011;17292;51.600;4.994;2023-04-25T06:52:27;29.52;;;4.97;;
30505;SDS011;17292;51.600;4.994;2023-04-25T06:54:53;23.83;;;4.53;;
30505;SDS011;17292;51.600;4.994;2023-04-25T06:57:19;21.77;;;5.07;;
30505;SDS011;17292;51.600;4.994;2023-04-25T06:59:45;19.15;;;4.80;;
30505;SDS011;17292;51.600;4.994;2023-04-25T07:02:11;30.45;;;5.15;;
30505;SDS011;17292;51.600;4.994;2023-04-25T07:04:37;32.65;;;5.47;;
30505;SDS011;17292;51.600;4.994;2023-04-25T07:07:03;28.27;;;4.63;;
30505;SDS011;17292;51.600;4.994;2023-04-25T07:09:30;20.17;;;4.32;;
30505;SDS011;17292;51.600;4.994;2023-04-25T07:11:58;22.40;;;4.53;;
30505;SDS011;17292;51.600;4.994;2023-04-25T07:14:26;16.02;;;3.50;;
30505;SDS011;17292;51.600;4.994;2023-04-25T07:16:52;18.73;;;3.92;;
30505;SDS011;17292;51.600;4.994;2023-04-25T07:19:21;31.35;;;5.20;;
30505;SDS011;17292;51.600;4.994;2023-04-25T07:21:49;26.80;;;5.28;;
30505;SDS011;17292;51.600;4.994;2023-04-25T07:24:15;28.50;;;6.13;;
30505;SDS011;17292;51.600;4.994;2023-04-25T07:26:41;19.27;;;4.75;;
30505;SDS011;17292;51.600;4.994;2023-04-25T07:29:07;22.25;;;4.63;;
30505;SDS011;17292;51.600;4.994;2023-04-25T07:31:33;27.13;;;5.43;;
30505;SDS011;17292;51.600;4.994;2023-04-25T07:33:59;25.10;;;5.32;;
30505;SDS011;17292;51.600;4.994;2023-04-25T07:36:25;26.23;;;4.47;;
30505;SDS011;17292;51.600;4.994;2023-04-25T07:38:52;22.83;;;3.90;;
30505;SDS011;17292;51.600;4.994;2023-04-25T07:41:18;15.90;;;4.45;;
30505;SDS011;17292;51.600;4.994;2023-04-25T07:43:44;17.02;;;4.13;;
30505;SDS011;17292;51.600;4.994;2023-04-25T07:46:10;17.00;;;3.78;;
30505;SDS011;17292;51.600;4.994;2023-04-25T07:48:36;28.40;;;5.57;;
30505;SDS011;17292;51.600;4.994;2023-04-25T07:51:03;18.88;;;5.05;;
30505;SDS011;17292;51.600;4.994;2023-04-25T07:53:30;37.55;;;4.68;;
30505;SDS011;17292;51.600;4.994;2023-04-25T07:55:57;38.67;;;5.65;;
30505;SDS011;17292;51.600;4.994;2023-04-25T07:58:23;26.92;;;5.22;;
30505;SDS011;17292;51.600;4.994;2023-04-25T08:00:49;30.88;;;5.72;;
30505;SDS011;17292;51.600;4.994;2023-04-25T08:03:16;31.20;;;5.15;;
30505;SDS011;17292;51.600;4.994;2023-04-25T08:05:42;25.92;;;5.20;;
30505;SDS011;17292;51.600;4.994;2023-04-25T08:08:08;30.25;;;5.07;;
30505;SDS011;17292;51.600;4.994;2023-04-25T08:10:34;25.67;;;5.03;;
30505;SDS011;17292;51.600;4.994;2023-04-25T08:13:00;20.08;;;4.95;;
30505;SDS011;17292;51.600;4.994;2023-04-25T08:15:27;22.08;;;4.70;;
30505;SDS011;17292;51.600;4.994;2023-04-25T08:17:53;18.77;;;4.78;;
30505;SDS011;17292;51.600;4.994;2023-04-25T08:20:19;18.02;;;4.38;;
30505;SDS011;17292;51.600;4.994;2023-04-25T08:22:46;18.95;;;4.00;;
30505;SDS011;17292;51.600;4.994;2023-04-25T08:25:13;15.95;;;4.68;;
30505;SDS011;17292;51.600;4.994;2023-04-25T08:27:39;23.02;;;5.40;;
30505;SDS011;17292;51.600;4.994;2023-04-25T08:30:06;16.85;;;4.60;;
30505;SDS011;17292;51.600;4.994;2023-04-25T08:32:33;20.20;;;4.72;;
30505;SDS011;17292;51.600;4.994;2023-04-25T08:35:03;19.33;;;5.03;;
30505;SDS011;17292;51.600;4.994;2023-04-25T08:37:29;20.35;;;5.18;;
30505;SDS011;17292;51.600;4.994;2023-04-25T08:39:55;17.50;;;4.38;;
30505;SDS011;17292;51.600;4.994;2023-04-25T08:42:21;19.42;;;4.50;;
30505;SDS011;17292;51.600;4.994;2023-04-25T08:44:48;22.23;;;4.70;;
30505;SDS011;17292;51.600;4.994;2023-04-25T08:47:15;19.25;;;4.40;;
30505;SDS011;17292;51.600;4.994;2023-04-25T08:49:43;15.88;;;5.18;;
30505;SDS011;17292;51.600;4.994;2023-04-25T08:52:11;17.55;;;4.70;;
30505;SDS011;17292;51.600;4.994;2023-04-25T08:54:41;19.95;;;4.70;;
30505;SDS011;17292;51.600;4.994;2023-04-25T08:57:08;17.05;;;4.43;;
30505;SDS011;17292;51.600;4.994;2023-04-25T08:59:34;19.15;;;4.20;;
30505;SDS011;17292;51.600;4.994;2023-04-25T09:02:03;15.88;;;4.38;;
30505;SDS011;17292;51.600;4.994;2023-04-25T09:04:32;14.13;;;4.50;;
30505;SDS011;17292;51.600;4.994;2023-04-25T09:06:58;29.20;;;5.30;;
30505;SDS011;17292;51.600;4.994;2023-04-25T09:09:24;18.77;;;4.82;;
30505;SDS011;17292;51.600;4.994;2023-04-25T09:11:50;20.30;;;4.43;;
30505;SDS011;17292;51.600;4.994;2023-04-25T09:14:20;17.65;;;4.97;;
30505;SDS011;17292;51.600;4.994;2023-04-25T09:19:24;21.08;;;5.60;;
30505;SDS011;17292;51.600;4.994;2023-04-25T09:21:51;21.95;;;4.95;;
30505;SDS011;17292;51.600;4.994;2023-04-25T09:24:43;21.42;;;4.45;;
30505;SDS011;17292;51.600;4.994;2023-04-25T09:27:11;22.17;;;5.57;;
30505;SDS011;17292;51.600;4.994;2023-04-25T09:29:38;27.33;;;5.43;;
30505;SDS011;17292;51.600;4.994;2023-04-25T09:32:26;21.73;;;4.53;;
30505;SDS011;17292;51.600;4.994;2023-04-25T09:34:52;16.55;;;4.10;;
30505;SDS011;17292;51.600;4.994;2023-04-25T09:39:49;20.90;;;4.85;;
30505;SDS011;17292;51.600;4.994;2023-04-25T09:42:15;22.83;;;4.93;;
30505;SDS011;17292;51.600;4.994;2023-04-25T09:44:45;26.77;;;4.50;;
30505;SDS011;17292;51.600;4.994;2023-04-25T09:47:12;17.42;;;4.90;;
30505;SDS011;17292;51.600;4.994;2023-04-25T09:49:39;25.40;;;5.40;;
30505;SDS011;17292;51.600;4.994;2023-04-25T09:52:09;18.58;;;5.00;;
30505;SDS011;17292;51.600;4.994;2023-04-25T09:54:38;19.05;;;4.97;;
30505;SDS011;17292;51.600;4.994;2023-04-25T09:57:09;17.67;;;4.68;;
30505;SDS011;17292;51.600;4.994;2023-04-25T09:59:38;20.35;;;5.10;;
30505;SDS011;17292;51.600;4.994;2023-04-25T10:02:05;22.55;;;5.15;;
30505;SDS011;17292;51.600;4.994;2023-04-25T10:04:32;23.80;;;4.40;;
30505;SDS011;17292;51.600;4.994;2023-04-25T10:07:00;27.60;;;5.70;;
30505;SDS011;17292;51.600;4.994;2023-04-25T10:09:27;25.27;;;4.90;;
30505;SDS011;17292;51.600;4.994;2023-04-25T10:11:57;27.65;;;5.53;;
30505;SDS011;17292;51.600;4.994;2023-04-25T10:14:24;19.10;;;4.78;;
30505;SDS011;17292;51.600;4.994;2023-04-25T10:16:50;23.33;;;5.05;;
30505;SDS011;17292;51.600;4.994;2023-04-25T10:19:19;21.70;;;4.75;;
30505;SDS011;17292;51.600;4.994;2023-04-25T10:21:50;31.15;;;5.10;;
30505;SDS011;17292;51.600;4.994;2023-04-25T10:24:17;23.83;;;5.37;;
30505;SDS011;17292;51.600;4.994;2023-04-25T10:26:43;18.55;;;5.40;;
30505;SDS011;17292;51.600;4.994;2023-04-25T10:29:10;24.38;;;4.32;;
30505;SDS011;17292;51.600;4.994;2023-04-25T10:31:44;18.52;;;5.10;;
30505;SDS011;17292;51.600;4.994;2023-04-25T10:34:10;36.65;;;5.07;;
30505;SDS011;17292;51.600;4.994;2023-04-25T10:36:36;23.33;;;4.93;;
30505;SDS011;17292;51.600;4.994;2023-04-25T10:39:04;28.75;;;4.68;;
30505;SDS011;17292;51.600;4.994;2023-04-25T10:41:32;24.90;;;5.53;;
30505;SDS011;17292;51.600;4.994;2023-04-25T10:44:11;30.42;;;5.03;;
30505;SDS011;17292;51.600;4.994;2023-04-25T10:46:37;25.58;;;5.35;;
30505;SDS011;17292;51.600;4.994;2023-04-25T10:49:03;33.97;;;5.38;;
30505;SDS011;17292;51.600;4.994;2023-04-25T10:51:32;30.17;;;4.82;;
30505;SDS011;17292;51.600;4.994;2023-04-25T10:56:26;24.45;;;5.00;;
30505;SDS011;17292;51.600;4.994;2023-04-25T10:59:02;27.88;;;4.45;;
30505;SDS011;17292;51.600;4.994;2023-04-25T11:01:35;21.27;;;5.25;;
30505;SDS011;17292;51.600;4.994;2023-04-25T11:04:01;20.67;;;3.95;;
30505;SDS011;17292;51.600;4.994;2023-04-25T11:06:41;21.27;;;5.30;;
30505;SDS011;17292;51.600;4.994;2023-04-25T11:09:09;21.52;;;4.70;;
30505;SDS011;17292;51.600;4.994;2023-04-25T11:11:38;30.90;;;5.35;;
30505;SDS011;17292;51.600;4.994;2023-04-25T11:14:05;24.50;;;5.82;;
30505;SDS011;17292;51.600;4.994;2023-04-25T11:16:31;27.30;;;5.22;;
30505;SDS011;17292;51.600;4.994;2023-04-25T11:18:57;21.70;;;5.07;;
30505;SDS011;17292;51.600;4.994;2023-04-25T11:21:26;28.02;;;5.07;;
30505;SDS011;17292;51.600;4.994;2023-04-25T11:23:53;22.25;;;4.07;;
30505;SDS011;17292;51.600;4.994;2023-04-25T11:26:20;18.33;;;4.60;;
30505;SDS011;17292;51.600;4.994;2023-04-25T11:28:46;23.55;;;5.03;;
30505;SDS011;17292;51.600;4.994;2023-04-25T11:31:12;25.67;;;4.80;;
30505;SDS011;17292;51.600;4.994;2023-04-25T11:33:39;22.95;;;5.25;;
30505;SDS011;17292;51.600;4.994;2023-04-25T11:36:06;24.75;;;4.88;;
30505;SDS011;17292;51.600;4.994;2023-04-25T11:38:32;17.77;;;5.88;;
30505;SDS011;17292;51.600;4.994;2023-04-25T11:40:58;21.30;;;4.40;;
30505;SDS011;17292;51.600;4.994;2023-04-25T11:43:25;14.88;;;4.75;;
30505;SDS011;17292;51.600;4.994;2023-04-25T11:45:51;24.77;;;4.72;;
30505;SDS011;17292;51.600;4.994;2023-04-25T11:48:20;20.95;;;4.25;;
30505;SDS011;17292;51.600;4.994;2023-04-25T11:50:47;26.15;;;4.47;;
30505;SDS011;17292;51.600;4.994;2023-04-25T11:53:13;30.17;;;5.22;;
30505;SDS011;17292;51.600;4.994;2023-04-25T11:55:39;22.10;;;5.22;;
30505;SDS011;17292;51.600;4.994;2023-04-25T11:58:06;27.27;;;4.38;;
30505;SDS011;17292;51.600;4.994;2023-04-25T12:00:33;23.17;;;4.47;;
30505;SDS011;17292;51.600;4.994;2023-04-25T12:03:00;23.08;;;4.82;;
30505;SDS011;17292;51.600;4.994;2023-04-25T12:05:28;22.65;;;4.93;;
30505;SDS011;17292;51.600;4.994;2023-04-25T12:07:55;22.58;;;5.88;;
30505;SDS011;17292;51.600;4.994;2023-04-25T12:10:23;22.00;;;4.95;;
30505;SDS011;17292;51.600;4.994;2023-04-25T12:12:50;16.25;;;4.40;;
30505;SDS011;17292;51.600;4.994;2023-04-25T12:15:17;18.42;;;5.25;;
30505;SDS011;17292;51.600;4.994;2023-04-25T12:17:47;16.02;;;4.05;;
30505;SDS011;17292;51.600;4.994;2023-04-25T12:20:15;24.55;;;4.85;;
30505;SDS011;17292;51.600;4.994;2023-04-25T12:22:46;20.40;;;4.80;;
30505;SDS011;17292;51.600;4.994;2023-04-25T12:25:12;20.33;;;5.55;;
30505;SDS011;17292;51.600;4.994;2023-04-25T12:27:39;28.95;;;5.75;;
30505;SDS011;17292;51.600;4.994;2023-04-25T12:30:09;24.90;;;4.88;;
30505;SDS011;17292;51.600;4.994;2023-04-25T12:32:36;27.35;;;5.68;;
30505;SDS011;17292;51.600;4.994;2023-04-25T12:35:03;20.02;;;4.47;;
30505;SDS011;17292;51.600;4.994;2023-04-25T12:37:29;24.63;;;4.60;;
30505;SDS011;17292;51.600;4.994;2023-04-25T12:39:56;23.75;;;4.93;;
30505;SDS011;17292;51.600;4.994;2023-04-25T12:42:22;26.25;;;4.70;;
30505;SDS011;17292;51.600;4.994;2023-04-25T12:44:48;30.25;;;5.47;;
30505;SDS011;17292;51.600;4.994;2023-04-25T12:47:14;23.45;;;4.88;;
30505;SDS011;17292;51.600;4.994;2023-04-25T12:49:41;20.98;;;5.05;;
30505;SDS011;17292;51.600;4.994;2023-04-25T12:52:07;29.15;;;5.32;;
30505;SDS011;17292;51.600;4.994;2023-04-25T12:54:33;21.27;;;4.97;;
30505;SDS011;17292;51.600;4.994;2023-04-25T12:57:00;24.90;;;4.60;;
30505;SDS011;17292;51.600;4.994;2023-04-25T12:59:27;23.10;;;5.15;;
30505;SDS011;17292;51.600;4.994;2023-04-25T13:01:53;28.92;;;4.80;;
30505;SDS011;17292;51.600;4.994;2023-04-25T13:04:20;23.73;;;5.57;;
30505;SDS011;17292;51.600;4.994;2023-04-25T13:06:46;30.63;;;5.50;;
30505;SDS011;17292;51.600;4.994;2023-04-25T13:09:12;18.30;;;4.53;;
30505;SDS011;17292;51.600;4.994;2023-04-25T13:11:40;25.90;;;4.78;;
30505;SDS011;17292;51.600;4.994;2023-04-25T13:14:06;28.80;;;5.72;;
30505;SDS011;17292;51.600;4.994;2023-04-25T13:16:32;22.30;;;4.93;;
30505;SDS011;17292;51.600;4.994;2023-04-25T13:22:03;27.05;;;5.50;;
30505;SDS011;17292;51.600;4.994;2023-04-25T13:24:30;16.13;;;4.22;;
30505;SDS011;17292;51.600;4.994;2023-04-25T13:26:56;27.45;;;5.68;;
30505;SDS011;17292;51.600;4.994;2023-04-25T13:29:22;21.30;;;4.78;;
30505;SDS011;17292;51.600;4.994;2023-04-25T13:31:48;19.70;;;5.15;;
30505;SDS011;17292;51.600;4.994;2023-04-25T13:34:14;23.52;;;5.28;;
30505;SDS011;17292;51.600;4.994;2023-04-25T13:36:41;20.50;;;5.07;;
30505;SDS011;17292;51.600;4.994;2023-04-25T13:39:07;26.88;;;5.70;;
30505;SDS011;17292;51.600;4.994;2023-04-25T13:41:33;39.95;;;7.20;;
30505;SDS011;17292;51.600;4.994;2023-04-25T13:43:59;35.67;;;5.53;;
30505;SDS011;17292;51.600;4.994;2023-04-25T13:46:26;34.50;;;6.75;;
30505;SDS011;17292;51.600;4.994;2023-04-25T13:48:52;35.28;;;5.57;;
30505;SDS011;17292;51.600;4.994;2023-04-25T13:51:18;45.42;;;6.32;;
30505;SDS011;17292;51.600;4.994;2023-04-25T13:53:45;36.90;;;6.18;;
30505;SDS011;17292;51.600;4.994;2023-04-25T13:56:11;22.13;;;5.50;;
30505;SDS011;17292;51.600;4.994;2023-04-25T13:58:38;21.92;;;5.68;;
30505;SDS011;17292;51.600;4.994;2023-04-25T14:01:04;30.95;;;5.95;;
30505;SDS011;17292;51.600;4.994;2023-04-25T14:03:30;30.10;;;5.65;;
30505;SDS011;17292;51.600;4.994;2023-04-25T14:05:57;36.97;;;7.03;;
30505;SDS011;17292;51.600;4.994;2023-04-25T14:08:23;31.50;;;5.85;;
30505;SDS011;17292;51.600;4.994;2023-04-25T14:10:49;24.00;;;5.88;;
30505;SDS011;17292;51.600;4.994;2023-04-25T14:13:15;30.45;;;5.47;;
30505;SDS011;17292;51.600;4.994;2023-04-25T14:15:41;25.88;;;5.57;;
30505;SDS011;17292;51.600;4.994;2023-04-25T14:18:07;34.47;;;5.85;;
30505;SDS011;17292;51.600;4.994;2023-04-25T14:20:33;26.38;;;5.57;;
30505;SDS011;17292;51.600;4.994;2023-04-25T14:22:59;28.65;;;5.82;;
30505;SDS011;17292;51.600;4.994;2023-04-25T14:25:27;38.92;;;6.00;;
30505;SDS011;17292;51.600;4.994;2023-04-25T14:27:53;33.53;;;6.50;;
30505;SDS011;17292;51.600;4.994;2023-04-25T14:30:20;39.70;;;5.78;;
30505;SDS011;17292;51.600;4.994;2023-04-25T14:32:46;27.77;;;5.68;;
30505;SDS011;17292;51.600;4.994;2023-04-25T14:35:12;29.85;;;6.55;;
30505;SDS011;17292;51.600;4.994;2023-04-25T14:37:38;23.70;;;5.65;;
30505;SDS011;17292;51.600;4.994;2023-04-25T14:40:05;36.50;;;5.57;;
30505;SDS011;17292;51.600;4.994;2023-04-25T14:42:32;30.85;;;6.95;;
30505;SDS011;17292;51.600;4.994;2023-04-25T14:44:59;23.30;;;5.93;;